sensor_id;sensor_type;location;lat;lon;timestamp;P1;durP1;ratioP1;P2;durP2;ratioP2
25663;SDS011;13522;50.018;20.014;2023-02-01T00:01:40;7.95;;;3.73;;
25663;SDS011;13522;50.018;20.014;2023-02-01T00:05:21;5.88;;;3.18;;
25663;SDS011;13522;50.018;20.014;2023-02-01T00:09:02;4.48;;;3.13;;
25663;SDS011;13522;50.018;20.014;2023-02-01T00:12:42;5.53;;;3.05;;
25663;SDS011;13522;50.018;20.014;2023-02-01T00:16:58;5.58;;;2.90;;
25663;SDS011;13522;50.018;20.014;2023-02-01T00:20:59;5.48;;;2.95;;
25663;SDS011;13522;50.018;20.014;2023-02-01T00:24:41;4.85;;;2.70;;
25663;SDS011;13522;50.018;20.014;2023-02-01T00:28:58;5.95;;;2.83;;
25663;SDS011;13522;50.018;20.014;2023-02-01T00:32:14;4.50;;;3.03;;
25663;SDS011;13522;50.018;20.014;2023-02-01T00:35:40;5.23;;;2.70;;
25663;SDS011;13522;50.018;20.014;2023-02-01T00:39:21;5.60;;;3.33;;
25663;SDS011;13522;50.018;20.014;2023-02-01T00:43:02;4.60;;;3.08;;
25663;SDS011;13522;50.018;20.014;2023-02-01T00:46:43;4.93;;;2.90;;
25663;SDS011;13522;50.018;20.014;2023-02-01T00:50:23;4.28;;;2.65;;
25663;SDS011;13522;50.018;20.014;2023-02-01T00:53:50;5.28;;;2.60;;
25663;SDS011;13522;50.018;20.014;2023-02-01T00:58:11;4.10;;;2.80;;
25663;SDS011;13522;50.018;20.014;2023-02-01T01:01:53;5.70;;;3.20;;
25663;SDS011;13522;50.018;20.014;2023-02-01T01:05:34;5.20;;;2.70;;
25663;SDS011;13522;50.018;20.014;2023-02-01T01:09:59;4.63;;;2.85;;
25663;SDS011;13522;50.018;20.014;2023-02-01T01:13:59;4.60;;;2.43;;
25663;SDS011;13522;50.018;20.014;2023-02-01T01:17:59;5.53;;;3.35;;
25663;SDS011;13522;50.018;20.014;2023-02-01T01:21:40;5.15;;;3.40;;
25663;SDS011;13522;50.018;20.014;2023-02-01T01:25:39;5.03;;;3.03;;
25663;SDS011;13522;50.018;20.014;2023-02-01T01:29:20;5.93;;;2.80;;
25663;SDS011;13522;50.018;20.014;2023-02-01T01:32:32;4.15;;;2.80;;
25663;SDS011;13522;50.018;20.014;2023-02-01T01:36:13;4.35;;;2.83;;
25663;SDS011;13522;50.018;20.014;2023-02-01T01:40:33;4.85;;;2.93;;
25663;SDS011;13522;50.018;20.014;2023-02-01T01:48:28;5.85;;;2.90;;
25663;SDS011;13522;50.018;20.014;2023-02-01T01:51:42;7.45;;;3.13;;
25663;SDS011;13522;50.018;20.014;2023-02-01T01:55:16;5.33;;;3.68;;
25663;SDS011;13522;50.018;20.014;2023-02-01T01:58:45;6.58;;;3.90;;
25663;SDS011;13522;50.018;20.014;2023-02-01T02:02:26;5.30;;;3.63;;
25663;SDS011;13522;50.018;20.014;2023-02-01T02:05:41;5.15;;;3.43;;
25663;SDS011;13522;50.018;20.014;2023-02-01T02:09:04;6.20;;;3.48;;
25663;SDS011;13522;50.018;20.014;2023-02-01T02:13:03;4.98;;;3.38;;
25663;SDS011;13522;50.018;20.014;2023-02-01T02:16:58;9.38;;;3.60;;
25663;SDS011;13522;50.018;20.014;2023-02-01T02:20:43;6.28;;;2.95;;
25663;SDS011;13522;50.018;20.014;2023-02-01T02:28:07;7.65;;;3.60;;
25663;SDS011;13522;50.018;20.014;2023-02-01T02:35:54;5.15;;;2.68;;
25663;SDS011;13522;50.018;20.014;2023-02-01T02:39:23;6.90;;;2.33;;
25663;SDS011;13522;50.018;20.014;2023-02-01T02:42:45;4.23;;;2.23;;
25663;SDS011;13522;50.018;20.014;2023-02-01T02:46:19;7.05;;;2.28;;
25663;SDS011;13522;50.018;20.014;2023-02-01T02:50:08;5.65;;;2.08;;
25663;SDS011;13522;50.018;20.014;2023-02-01T02:53:52;4.68;;;1.70;;
25663;SDS011;13522;50.018;20.014;2023-02-01T02:58:06;7.20;;;1.83;;
25663;SDS011;13522;50.018;20.014;2023-02-01T03:11:46;6.23;;;1.98;;
25663;SDS011;13522;50.018;20.014;2023-02-01T03:18:41;6.55;;;2.03;;
25663;SDS011;13522;50.018;20.014;2023-02-01T03:23:24;3.95;;;1.40;;
25663;SDS011;13522;50.018;20.014;2023-02-01T03:27:00;5.65;;;1.65;;
25663;SDS011;13522;50.018;20.014;2023-02-01T03:31:24;8.33;;;2.33;;
25663;SDS011;13522;50.018;20.014;2023-02-01T03:35:44;9.85;;;2.35;;
25663;SDS011;13522;50.018;20.014;2023-02-01T03:39:32;8.83;;;2.10;;
25663;SDS011;13522;50.018;20.014;2023-02-01T03:46:51;8.40;;;2.08;;
25663;SDS011;13522;50.018;20.014;2023-02-01T03:50:17;7.63;;;1.60;;
25663;SDS011;13522;50.018;20.014;2023-02-01T04:00:45;5.43;;;1.70;;
25663;SDS011;13522;50.018;20.014;2023-02-01T06:44:25;11.60;;;3.50;;
25663;SDS011;13522;50.018;20.014;2023-02-01T06:47:37;9.73;;;3.58;;
25663;SDS011;13522;50.018;20.014;2023-02-01T06:50:49;12.10;;;3.75;;
25663;SDS011;13522;50.018;20.014;2023-02-01T06:54:02;11.20;;;3.88;;
25663;SDS011;13522;50.018;20.014;2023-02-01T06:57:14;11.68;;;3.80;;
25663;SDS011;13522;50.018;20.014;2023-02-01T07:00:26;10.13;;;3.83;;
25663;SDS011;13522;50.018;20.014;2023-02-01T07:03:39;11.85;;;3.38;;
25663;SDS011;13522;50.018;20.014;2023-02-01T07:06:55;12.13;;;3.50;;
25663;SDS011;13522;50.018;20.014;2023-02-01T07:10:08;7.18;;;2.80;;
25663;SDS011;13522;50.018;20.014;2023-02-01T07:13:22;8.88;;;2.93;;
25663;SDS011;13522;50.018;20.014;2023-02-01T07:16:34;10.35;;;2.83;;
25663;SDS011;13522;50.018;20.014;2023-02-01T07:19:47;8.90;;;3.38;;
25663;SDS011;13522;50.018;20.014;2023-02-01T07:22:59;9.18;;;3.70;;
25663;SDS011;13522;50.018;20.014;2023-02-01T07:26:12;12.83;;;3.20;;
25663;SDS011;13522;50.018;20.014;2023-02-01T07:29:25;16.55;;;4.23;;
25663;SDS011;13522;50.018;20.014;2023-02-01T07:32:37;10.23;;;3.28;;
25663;SDS011;13522;50.018;20.014;2023-02-01T07:35:49;9.18;;;3.00;;
25663;SDS011;13522;50.018;20.014;2023-02-01T07:39:02;8.28;;;3.10;;
25663;SDS011;13522;50.018;20.014;2023-02-01T07:42:14;15.20;;;4.05;;
25663;SDS011;13522;50.018;20.014;2023-02-01T07:45:27;9.75;;;2.88;;
25663;SDS011;13522;50.018;20.014;2023-02-01T07:48:40;8.80;;;2.78;;
25663;SDS011;13522;50.018;20.014;2023-02-01T07:51:52;10.30;;;3.18;;
25663;SDS011;13522;50.018;20.014;2023-02-01T07:55:05;9.48;;;3.13;;
25663;SDS011;13522;50.018;20.014;2023-02-01T07:58:18;8.38;;;2.90;;
25663;SDS011;13522;50.018;20.014;2023-02-01T08:01:31;10.75;;;3.35;;
25663;SDS011;13522;50.018;20.014;2023-02-01T08:04:43;11.03;;;3.10;;
25663;SDS011;13522;50.018;20.014;2023-02-01T08:07:55;7.58;;;3.43;;
25663;SDS011;13522;50.018;20.014;2023-02-01T08:11:08;7.93;;;2.93;;
25663;SDS011;13522;50.018;20.014;2023-02-01T08:14:21;11.20;;;3.33;;
25663;SDS011;13522;50.018;20.014;2023-02-01T08:17:33;20.38;;;3.35;;
25663;SDS011;13522;50.018;20.014;2023-02-01T08:20:45;7.35;;;2.98;;
25663;SDS011;13522;50.018;20.014;2023-02-01T08:23:57;10.03;;;2.98;;
25663;SDS011;13522;50.018;20.014;2023-02-01T08:27:09;21.25;;;3.88;;
25663;SDS011;13522;50.018;20.014;2023-02-01T08:30:21;7.08;;;2.90;;
25663;SDS011;13522;50.018;20.014;2023-02-01T08:33:34;11.80;;;3.25;;
25663;SDS011;13522;50.018;20.014;2023-02-01T08:36:47;8.93;;;3.53;;
25663;SDS011;13522;50.018;20.014;2023-02-01T08:40:06;10.98;;;3.60;;
25663;SDS011;13522;50.018;20.014;2023-02-01T08:43:21;8.28;;;2.95;;
25663;SDS011;13522;50.018;20.014;2023-02-01T08:46:34;10.13;;;3.30;;
25663;SDS011;13522;50.018;20.014;2023-02-01T08:49:46;9.05;;;3.13;;
25663;SDS011;13522;50.018;20.014;2023-02-01T08:52:58;11.45;;;3.48;;
25663;SDS011;13522;50.018;20.014;2023-02-01T08:56:11;11.25;;;3.03;;
25663;SDS011;13522;50.018;20.014;2023-02-01T08:59:25;10.48;;;3.93;;
25663;SDS011;13522;50.018;20.014;2023-02-01T09:02:37;13.18;;;3.98;;
25663;SDS011;13522;50.018;20.014;2023-02-01T09:05:50;11.30;;;4.15;;
25663;SDS011;13522;50.018;20.014;2023-02-01T09:09:04;9.00;;;3.15;;
25663;SDS011;13522;50.018;20.014;2023-02-01T09:12:16;6.95;;;2.90;;
25663;SDS011;13522;50.018;20.014;2023-02-01T09:15:29;12.50;;;3.15;;
25663;SDS011;13522;50.018;20.014;2023-02-01T09:18:41;11.43;;;3.43;;
25663;SDS011;13522;50.018;20.014;2023-02-01T09:21:55;8.35;;;2.68;;
25663;SDS011;13522;50.018;20.014;2023-02-01T09:25:08;9.13;;;3.20;;
25663;SDS011;13522;50.018;20.014;2023-02-01T09:28:20;9.60;;;3.05;;
25663;SDS011;13522;50.018;20.014;2023-02-01T09:31:32;9.75;;;3.68;;
25663;SDS011;13522;50.018;20.014;2023-02-01T09:34:47;15.50;;;3.18;;
25663;SDS011;13522;50.018;20.014;2023-02-01T09:37:59;9.78;;;3.10;;
25663;SDS011;13522;50.018;20.014;2023-02-01T09:41:16;8.18;;;2.80;;
25663;SDS011;13522;50.018;20.014;2023-02-01T09:44:42;8.33;;;2.70;;
25663;SDS011;13522;50.018;20.014;2023-02-01T09:48:13;11.28;;;4.08;;
25663;SDS011;13522;50.018;20.014;2023-02-01T09:51:29;10.83;;;3.33;;
25663;SDS011;13522;50.018;20.014;2023-02-01T09:58:02;8.00;;;3.53;;
25663;SDS011;13522;50.018;20.014;2023-02-01T10:01:20;10.28;;;3.40;;
25663;SDS011;13522;50.018;20.014;2023-02-01T10:04:34;10.33;;;3.80;;
25663;SDS011;13522;50.018;20.014;2023-02-01T10:07:49;7.73;;;3.20;;
25663;SDS011;13522;50.018;20.014;2023-02-01T10:11:09;9.38;;;3.45;;
25663;SDS011;13522;50.018;20.014;2023-02-01T10:14:36;8.00;;;3.10;;
25663;SDS011;13522;50.018;20.014;2023-02-01T10:18:00;9.20;;;3.13;;
25663;SDS011;13522;50.018;20.014;2023-02-01T10:21:39;9.45;;;3.23;;
25663;SDS011;13522;50.018;20.014;2023-02-01T10:24:59;11.70;;;2.73;;
25663;SDS011;13522;50.018;20.014;2023-02-01T10:28:20;8.58;;;2.75;;
25663;SDS011;13522;50.018;20.014;2023-02-01T10:31:35;9.08;;;3.30;;
25663;SDS011;13522;50.018;20.014;2023-02-01T10:34:50;9.10;;;3.13;;
25663;SDS011;13522;50.018;20.014;2023-02-01T10:38:07;9.83;;;3.70;;
25663;SDS011;13522;50.018;20.014;2023-02-01T10:41:27;10.78;;;3.08;;
25663;SDS011;13522;50.018;20.014;2023-02-01T10:44:43;7.80;;;2.60;;
25663;SDS011;13522;50.018;20.014;2023-02-01T10:47:57;9.78;;;3.35;;
25663;SDS011;13522;50.018;20.014;2023-02-01T10:51:14;10.75;;;3.40;;
25663;SDS011;13522;50.018;20.014;2023-02-01T10:54:34;10.25;;;3.63;;
25663;SDS011;13522;50.018;20.014;2023-02-01T10:57:50;8.65;;;3.40;;
25663;SDS011;13522;50.018;20.014;2023-02-01T11:01:08;11.88;;;3.80;;
25663;SDS011;13522;50.018;20.014;2023-02-01T11:04:26;9.18;;;3.53;;
25663;SDS011;13522;50.018;20.014;2023-02-01T11:07:45;14.63;;;3.87;;
25663;SDS011;13522;50.018;20.014;2023-02-01T11:11:01;12.43;;;3.93;;
25663;SDS011;13522;50.018;20.014;2023-02-01T11:14:16;11.83;;;3.80;;
25663;SDS011;13522;50.018;20.014;2023-02-01T11:17:34;8.38;;;3.85;;
25663;SDS011;13522;50.018;20.014;2023-02-01T11:20:51;10.28;;;3.70;;
25663;SDS011;13522;50.018;20.014;2023-02-01T11:24:04;11.20;;;3.20;;
25663;SDS011;13522;50.018;20.014;2023-02-01T11:27:24;12.15;;;3.90;;
25663;SDS011;13522;50.018;20.014;2023-02-01T11:30:40;10.60;;;3.97;;
25663;SDS011;13522;50.018;20.014;2023-02-01T11:33:55;9.13;;;3.63;;
25663;SDS011;13522;50.018;20.014;2023-02-01T11:37:16;10.25;;;3.55;;
25663;SDS011;13522;50.018;20.014;2023-02-01T11:40:35;8.75;;;3.30;;
25663;SDS011;13522;50.018;20.014;2023-02-01T11:43:51;9.30;;;4.25;;
25663;SDS011;13522;50.018;20.014;2023-02-01T11:47:23;11.13;;;3.63;;
25663;SDS011;13522;50.018;20.014;2023-02-01T11:50:38;11.13;;;3.40;;
25663;SDS011;13522;50.018;20.014;2023-02-01T11:54:01;14.13;;;4.45;;
25663;SDS011;13522;50.018;20.014;2023-02-01T11:57:31;11.78;;;4.05;;
25663;SDS011;13522;50.018;20.014;2023-02-01T12:00:59;11.98;;;3.38;;
25663;SDS011;13522;50.018;20.014;2023-02-01T12:04:45;8.75;;;3.70;;
25663;SDS011;13522;50.018;20.014;2023-02-01T12:08:31;13.28;;;3.48;;
25663;SDS011;13522;50.018;20.014;2023-02-01T12:12:11;8.45;;;3.65;;
25663;SDS011;13522;50.018;20.014;2023-02-01T12:15:33;16.58;;;4.70;;
25663;SDS011;13522;50.018;20.014;2023-02-01T12:19:00;11.70;;;4.08;;
25663;SDS011;13522;50.018;20.014;2023-02-01T12:22:35;9.70;;;4.15;;
25663;SDS011;13522;50.018;20.014;2023-02-01T12:25:59;9.48;;;3.75;;
25663;SDS011;13522;50.018;20.014;2023-02-01T12:32:47;10.93;;;4.35;;
25663;SDS011;13522;50.018;20.014;2023-02-01T12:36:10;12.98;;;4.15;;
25663;SDS011;13522;50.018;20.014;2023-02-01T12:39:29;14.65;;;4.88;;
25663;SDS011;13522;50.018;20.014;2023-02-01T12:42:45;11.33;;;4.18;;
25663;SDS011;13522;50.018;20.014;2023-02-01T12:46:04;10.38;;;3.88;;
25663;SDS011;13522;50.018;20.014;2023-02-01T12:49:21;11.05;;;4.05;;
25663;SDS011;13522;50.018;20.014;2023-02-01T12:52:39;11.53;;;4.15;;
25663;SDS011;13522;50.018;20.014;2023-02-01T12:59:14;9.18;;;4.05;;
25663;SDS011;13522;50.018;20.014;2023-02-01T13:02:33;8.03;;;3.68;;
25663;SDS011;13522;50.018;20.014;2023-02-01T13:05:51;10.53;;;3.90;;
25663;SDS011;13522;50.018;20.014;2023-02-01T13:12:28;11.05;;;4.00;;
25663;SDS011;13522;50.018;20.014;2023-02-01T13:15:45;8.40;;;3.70;;
25663;SDS011;13522;50.018;20.014;2023-02-01T13:19:05;10.85;;;3.90;;
25663;SDS011;13522;50.018;20.014;2023-02-01T13:22:25;11.48;;;4.70;;
25663;SDS011;13522;50.018;20.014;2023-02-01T13:25:43;12.95;;;5.08;;
25663;SDS011;13522;50.018;20.014;2023-02-01T13:28:58;8.40;;;4.05;;
25663;SDS011;13522;50.018;20.014;2023-02-01T13:32:17;13.77;;;4.17;;
25663;SDS011;13522;50.018;20.014;2023-02-01T13:39:50;10.08;;;4.65;;
25663;SDS011;13522;50.018;20.014;2023-02-01T13:43:20;13.53;;;4.53;;
25663;SDS011;13522;50.018;20.014;2023-02-01T13:46:39;13.20;;;4.40;;
25663;SDS011;13522;50.018;20.014;2023-02-01T13:49:57;8.05;;;3.50;;
25663;SDS011;13522;50.018;20.014;2023-02-01T13:53:16;7.03;;;3.10;;
25663;SDS011;13522;50.018;20.014;2023-02-01T13:56:40;8.45;;;3.70;;
25663;SDS011;13522;50.018;20.014;2023-02-01T13:59:53;9.10;;;4.53;;
25663;SDS011;13522;50.018;20.014;2023-02-01T14:03:23;10.33;;;4.30;;
25663;SDS011;13522;50.018;20.014;2023-02-01T14:06:54;8.20;;;3.73;;
25663;SDS011;13522;50.018;20.014;2023-02-01T14:14:12;8.70;;;3.60;;
25663;SDS011;13522;50.018;20.014;2023-02-01T14:17:54;9.58;;;3.48;;
25663;SDS011;13522;50.018;20.014;2023-02-01T14:21:16;9.28;;;3.63;;
25663;SDS011;13522;50.018;20.014;2023-02-01T14:24:33;6.58;;;3.10;;
25663;SDS011;13522;50.018;20.014;2023-02-01T14:27:46;9.13;;;3.25;;
25663;SDS011;13522;50.018;20.014;2023-02-01T14:30:58;5.50;;;3.40;;
25663;SDS011;13522;50.018;20.014;2023-02-01T14:34:19;7.98;;;2.88;;
25663;SDS011;13522;50.018;20.014;2023-02-01T14:37:37;7.80;;;2.90;;
25663;SDS011;13522;50.018;20.014;2023-02-01T14:40:51;4.73;;;2.23;;
25663;SDS011;13522;50.018;20.014;2023-02-01T14:44:21;6.33;;;2.60;;
25663;SDS011;13522;50.018;20.014;2023-02-01T14:47:50;5.40;;;2.73;;
25663;SDS011;13522;50.018;20.014;2023-02-01T14:51:03;5.75;;;2.95;;
25663;SDS011;13522;50.018;20.014;2023-02-01T14:54:18;6.38;;;2.70;;
25663;SDS011;13522;50.018;20.014;2023-02-01T14:57:33;5.38;;;2.48;;
25663;SDS011;13522;50.018;20.014;2023-02-01T15:00:50;5.03;;;2.63;;
25663;SDS011;13522;50.018;20.014;2023-02-01T15:04:05;4.98;;;2.70;;
25663;SDS011;13522;50.018;20.014;2023-02-01T15:07:23;5.58;;;2.35;;
25663;SDS011;13522;50.018;20.014;2023-02-01T15:10:40;4.25;;;2.63;;
25663;SDS011;13522;50.018;20.014;2023-02-01T15:13:56;4.15;;;2.35;;
25663;SDS011;13522;50.018;20.014;2023-02-01T15:17:19;4.45;;;2.10;;
25663;SDS011;13522;50.018;20.014;2023-02-01T15:20:35;5.48;;;2.73;;
25663;SDS011;13522;50.018;20.014;2023-02-01T15:23:49;4.90;;;2.45;;
25663;SDS011;13522;50.018;20.014;2023-02-01T15:30:28;5.10;;;2.80;;
25663;SDS011;13522;50.018;20.014;2023-02-01T15:33:43;4.25;;;2.63;;
25663;SDS011;13522;50.018;20.014;2023-02-01T15:37:07;5.15;;;2.88;;
25663;SDS011;13522;50.018;20.014;2023-02-01T15:40:25;7.73;;;2.83;;
25663;SDS011;13522;50.018;20.014;2023-02-01T15:43:39;5.20;;;2.73;;
25663;SDS011;13522;50.018;20.014;2023-02-01T15:46:56;6.05;;;3.48;;
25663;SDS011;13522;50.018;20.014;2023-02-01T15:53:29;6.00;;;3.40;;
25663;SDS011;13522;50.018;20.014;2023-02-01T15:56:42;7.73;;;3.78;;
25663;SDS011;13522;50.018;20.014;2023-02-01T15:59:57;5.10;;;3.43;;
25663;SDS011;13522;50.018;20.014;2023-02-01T16:03:26;7.10;;;3.53;;
25663;SDS011;13522;50.018;20.014;2023-02-01T16:06:50;7.50;;;4.78;;
25663;SDS011;13522;50.018;20.014;2023-02-01T16:13:33;10.70;;;4.50;;
25663;SDS011;13522;50.018;20.014;2023-02-01T16:16:45;7.88;;;4.08;;
25663;SDS011;13522;50.018;20.014;2023-02-01T16:19:58;6.63;;;3.95;;
25663;SDS011;13522;50.018;20.014;2023-02-01T16:23:10;6.58;;;4.05;;
25663;SDS011;13522;50.018;20.014;2023-02-01T16:26:24;6.18;;;4.15;;
25663;SDS011;13522;50.018;20.014;2023-02-01T16:29:37;8.73;;;4.75;;
25663;SDS011;13522;50.018;20.014;2023-02-01T16:32:49;10.53;;;5.25;;
25663;SDS011;13522;50.018;20.014;2023-02-01T16:36:02;8.78;;;5.15;;
25663;SDS011;13522;50.018;20.014;2023-02-01T16:39:18;9.35;;;4.70;;
25663;SDS011;13522;50.018;20.014;2023-02-01T16:42:32;8.10;;;4.95;;
25663;SDS011;13522;50.018;20.014;2023-02-01T16:45:44;9.58;;;5.10;;
25663;SDS011;13522;50.018;20.014;2023-02-01T16:48:59;9.65;;;5.35;;
25663;SDS011;13522;50.018;20.014;2023-02-01T16:52:13;8.98;;;5.40;;
25663;SDS011;13522;50.018;20.014;2023-02-01T16:55:29;8.00;;;5.08;;
25663;SDS011;13522;50.018;20.014;2023-02-01T16:58:41;9.50;;;4.55;;
25663;SDS011;13522;50.018;20.014;2023-02-01T17:01:54;10.50;;;5.33;;
25663;SDS011;13522;50.018;20.014;2023-02-01T17:05:07;11.55;;;5.78;;
25663;SDS011;13522;50.018;20.014;2023-02-01T17:08:25;11.53;;;6.50;;
25663;SDS011;13522;50.018;20.014;2023-02-01T17:11:41;9.55;;;5.53;;
25663;SDS011;13522;50.018;20.014;2023-02-01T17:14:53;10.33;;;5.33;;
25663;SDS011;13522;50.018;20.014;2023-02-01T17:18:08;9.25;;;4.70;;
25663;SDS011;13522;50.018;20.014;2023-02-01T17:25:13;14.15;;;7.10;;
25663;SDS011;13522;50.018;20.014;2023-02-01T17:28:27;11.85;;;6.40;;
25663;SDS011;13522;50.018;20.014;2023-02-01T17:31:49;11.98;;;6.03;;
25663;SDS011;13522;50.018;20.014;2023-02-01T17:35:05;11.30;;;6.18;;
25663;SDS011;13522;50.018;20.014;2023-02-01T17:38:24;11.78;;;6.08;;
25663;SDS011;13522;50.018;20.014;2023-02-01T17:41:37;11.65;;;6.53;;
25663;SDS011;13522;50.018;20.014;2023-02-01T17:44:50;15.35;;;6.55;;
25663;SDS011;13522;50.018;20.014;2023-02-01T17:48:07;14.78;;;7.78;;
25663;SDS011;13522;50.018;20.014;2023-02-01T17:51:20;16.53;;;7.85;;
25663;SDS011;13522;50.018;20.014;2023-02-01T17:54:35;13.48;;;6.68;;
25663;SDS011;13522;50.018;20.014;2023-02-01T17:57:48;14.80;;;7.58;;
25663;SDS011;13522;50.018;20.014;2023-02-01T18:01:01;12.95;;;7.13;;
25663;SDS011;13522;50.018;20.014;2023-02-01T18:04:15;15.00;;;7.53;;
25663;SDS011;13522;50.018;20.014;2023-02-01T18:07:31;15.78;;;7.75;;
25663;SDS011;13522;50.018;20.014;2023-02-01T18:10:44;18.48;;;7.80;;
25663;SDS011;13522;50.018;20.014;2023-02-01T18:13:59;14.63;;;6.95;;
25663;SDS011;13522;50.018;20.014;2023-02-01T18:17:11;14.85;;;7.55;;
25663;SDS011;13522;50.018;20.014;2023-02-01T18:20:24;13.73;;;7.30;;
25663;SDS011;13522;50.018;20.014;2023-02-01T18:26:39;15.33;;;8.38;;
25663;SDS011;13522;50.018;20.014;2023-02-01T18:29:51;15.08;;;7.13;;
25663;SDS011;13522;50.018;20.014;2023-02-01T18:33:04;15.60;;;8.35;;
25663;SDS011;13522;50.018;20.014;2023-02-01T18:36:20;18.13;;;8.50;;
25663;SDS011;13522;50.018;20.014;2023-02-01T18:39:34;15.33;;;8.20;;
25663;SDS011;13522;50.018;20.014;2023-02-01T18:42:46;18.48;;;8.43;;
25663;SDS011;13522;50.018;20.014;2023-02-01T18:45:58;18.43;;;8.10;;
25663;SDS011;13522;50.018;20.014;2023-02-01T18:49:11;16.18;;;7.55;;
25663;SDS011;13522;50.018;20.014;2023-02-01T18:52:24;15.68;;;7.40;;
25663;SDS011;13522;50.018;20.014;2023-02-01T18:55:36;15.88;;;6.50;;
25663;SDS011;13522;50.018;20.014;2023-02-01T18:58:49;13.23;;;6.75;;
25663;SDS011;13522;50.018;20.014;2023-02-01T19:02:03;14.38;;;6.50;;
25663;SDS011;13522;50.018;20.014;2023-02-01T19:05:17;14.05;;;6.53;;
25663;SDS011;13522;50.018;20.014;2023-02-01T19:08:30;14.38;;;6.55;;
25663;SDS011;13522;50.018;20.014;2023-02-01T19:11:42;13.80;;;6.95;;
25663;SDS011;13522;50.018;20.014;2023-02-01T19:14:55;16.43;;;7.45;;
25663;SDS011;13522;50.018;20.014;2023-02-01T19:18:08;13.90;;;7.33;;
25663;SDS011;13522;50.018;20.014;2023-02-01T19:21:22;14.40;;;6.73;;
25663;SDS011;13522;50.018;20.014;2023-02-01T19:24:35;14.30;;;7.65;;
25663;SDS011;13522;50.018;20.014;2023-02-01T19:27:48;18.08;;;7.68;;
25663;SDS011;13522;50.018;20.014;2023-02-01T19:31:02;16.25;;;7.20;;
25663;SDS011;13522;50.018;20.014;2023-02-01T19:34:15;16.18;;;8.03;;
25663;SDS011;13522;50.018;20.014;2023-02-01T19:37:28;14.25;;;7.30;;
25663;SDS011;13522;50.018;20.014;2023-02-01T19:40:40;15.03;;;7.23;;
25663;SDS011;13522;50.018;20.014;2023-02-01T19:43:53;15.83;;;8.08;;
25663;SDS011;13522;50.018;20.014;2023-02-01T19:47:09;16.83;;;7.80;;
25663;SDS011;13522;50.018;20.014;2023-02-01T19:50:21;15.00;;;7.58;;
25663;SDS011;13522;50.018;20.014;2023-02-01T19:53:34;18.70;;;7.83;;
25663;SDS011;13522;50.018;20.014;2023-02-01T19:56:47;20.10;;;8.58;;
25663;SDS011;13522;50.018;20.014;2023-02-01T19:59:59;19.20;;;9.58;;
25663;SDS011;13522;50.018;20.014;2023-02-01T20:03:21;17.95;;;9.15;;
25663;SDS011;13522;50.018;20.014;2023-02-01T20:06:36;18.50;;;8.43;;
25663;SDS011;13522;50.018;20.014;2023-02-01T20:09:52;14.40;;;7.00;;
25663;SDS011;13522;50.018;20.014;2023-02-01T20:13:05;18.28;;;7.70;;
25663;SDS011;13522;50.018;20.014;2023-02-01T20:16:17;12.85;;;6.90;;
25663;SDS011;13522;50.018;20.014;2023-02-01T20:19:30;14.65;;;6.90;;
25663;SDS011;13522;50.018;20.014;2023-02-01T20:22:42;12.95;;;7.08;;
25663;SDS011;13522;50.018;20.014;2023-02-01T20:25:55;14.18;;;6.25;;
25663;SDS011;13522;50.018;20.014;2023-02-01T20:29:13;13.85;;;6.70;;
25663;SDS011;13522;50.018;20.014;2023-02-01T20:32:26;12.83;;;6.55;;
25663;SDS011;13522;50.018;20.014;2023-02-01T20:36:07;13.30;;;6.43;;
25663;SDS011;13522;50.018;20.014;2023-02-01T20:39:21;15.33;;;6.75;;
25663;SDS011;13522;50.018;20.014;2023-02-01T20:42:33;14.13;;;7.03;;
25663;SDS011;13522;50.018;20.014;2023-02-01T20:45:45;13.48;;;5.90;;
25663;SDS011;13522;50.018;20.014;2023-02-01T20:49:28;13.15;;;5.95;;
25663;SDS011;13522;50.018;20.014;2023-02-01T20:52:43;13.25;;;6.33;;
25663;SDS011;13522;50.018;20.014;2023-02-01T20:55:56;13.73;;;5.80;;
25663;SDS011;13522;50.018;20.014;2023-02-01T20:59:37;15.15;;;6.48;;
25663;SDS011;13522;50.018;20.014;2023-02-01T21:03:01;11.60;;;5.35;;
25663;SDS011;13522;50.018;20.014;2023-02-01T21:07:01;12.05;;;5.75;;
25663;SDS011;13522;50.018;20.014;2023-02-01T21:10:14;16.60;;;6.25;;
25663;SDS011;13522;50.018;20.014;2023-02-01T21:13:29;15.10;;;5.75;;
25663;SDS011;13522;50.018;20.014;2023-02-01T21:16:48;10.85;;;5.53;;
25663;SDS011;13522;50.018;20.014;2023-02-01T21:20:00;11.28;;;4.80;;
25663;SDS011;13522;50.018;20.014;2023-02-01T21:23:14;13.98;;;6.15;;
25663;SDS011;13522;50.018;20.014;2023-02-01T21:26:29;10.10;;;4.50;;
25663;SDS011;13522;50.018;20.014;2023-02-01T21:29:48;10.98;;;4.28;;
25663;SDS011;13522;50.018;20.014;2023-02-01T21:33:00;11.15;;;4.83;;
25663;SDS011;13522;50.018;20.014;2023-02-01T21:36:13;9.93;;;4.70;;
25663;SDS011;13522;50.018;20.014;2023-02-01T21:39:30;9.68;;;4.88;;
25663;SDS011;13522;50.018;20.014;2023-02-01T21:42:42;10.65;;;4.45;;
25663;SDS011;13522;50.018;20.014;2023-02-01T21:45:55;10.73;;;4.60;;
25663;SDS011;13522;50.018;20.014;2023-02-01T21:49:07;10.80;;;4.35;;
25663;SDS011;13522;50.018;20.014;2023-02-01T21:52:19;9.25;;;4.30;;
25663;SDS011;13522;50.018;20.014;2023-02-01T21:55:32;8.20;;;4.25;;
25663;SDS011;13522;50.018;20.014;2023-02-01T21:58:44;8.25;;;3.30;;
25663;SDS011;13522;50.018;20.014;2023-02-01T22:01:56;9.35;;;3.35;;
25663;SDS011;13522;50.018;20.014;2023-02-01T22:05:09;7.23;;;3.05;;
25663;SDS011;13522;50.018;20.014;2023-02-01T22:08:22;7.28;;;3.53;;
25663;SDS011;13522;50.018;20.014;2023-02-01T22:11:36;7.53;;;2.90;;
25663;SDS011;13522;50.018;20.014;2023-02-01T22:14:49;6.55;;;2.55;;
25663;SDS011;13522;50.018;20.014;2023-02-01T22:18:01;4.75;;;2.28;;
25663;SDS011;13522;50.018;20.014;2023-02-01T22:21:16;6.00;;;2.28;;
25663;SDS011;13522;50.018;20.014;2023-02-01T22:24:30;7.25;;;2.68;;
25663;SDS011;13522;50.018;20.014;2023-02-01T22:27:42;6.75;;;2.65;;
25663;SDS011;13522;50.018;20.014;2023-02-01T22:30:59;5.28;;;2.38;;
25663;SDS011;13522;50.018;20.014;2023-02-01T22:34:12;5.75;;;2.45;;
25663;SDS011;13522;50.018;20.014;2023-02-01T22:37:25;6.10;;;2.70;;
25663;SDS011;13522;50.018;20.014;2023-02-01T22:40:37;8.35;;;3.00;;
25663;SDS011;13522;50.018;20.014;2023-02-01T22:43:50;10.23;;;3.18;;
25663;SDS011;13522;50.018;20.014;2023-02-01T22:47:03;6.68;;;2.65;;
25663;SDS011;13522;50.018;20.014;2023-02-01T22:50:16;7.35;;;3.30;;
25663;SDS011;13522;50.018;20.014;2023-02-01T22:53:29;6.40;;;2.90;;
25663;SDS011;13522;50.018;20.014;2023-02-01T22:56:42;6.88;;;3.53;;
25663;SDS011;13522;50.018;20.014;2023-02-01T22:59:55;7.35;;;3.10;;
25663;SDS011;13522;50.018;20.014;2023-02-01T23:03:07;7.18;;;3.38;;
25663;SDS011;13522;50.018;20.014;2023-02-01T23:06:19;6.98;;;3.03;;
25663;SDS011;13522;50.018;20.014;2023-02-01T23:09:33;7.10;;;3.05;;
25663;SDS011;13522;50.018;20.014;2023-02-01T23:12:47;7.73;;;3.55;;
25663;SDS011;13522;50.018;20.014;2023-02-01T23:16:02;7.60;;;3.43;;
25663;SDS011;13522;50.018;20.014;2023-02-01T23:19:19;9.05;;;3.50;;
25663;SDS011;13522;50.018;20.014;2023-02-01T23:22:32;9.50;;;3.85;;
25663;SDS011;13522;50.018;20.014;2023-02-01T23:25:49;7.13;;;3.15;;
25663;SDS011;13522;50.018;20.014;2023-02-01T23:29:01;8.00;;;3.30;;
25663;SDS011;13522;50.018;20.014;2023-02-01T23:32:14;7.33;;;3.15;;
25663;SDS011;13522;50.018;20.014;2023-02-01T23:35:28;6.95;;;3.25;;
25663;SDS011;13522;50.018;20.014;2023-02-01T23:38:40;7.05;;;2.93;;